Time;durP1;ratioP1;P1;durP2;ratioP2;P2;SDS_P1;SDS_P2;PMS_P1;PMS_P2;Temp;Humidity;BMP_temperature;BMP_pressure;BME280_temperature;BME280_humidity;BME280_pressure;Samples;Min_cycle;Max_cycle;Signal;HPM_P1;HPM_P2
2022/03/08 00:00:05;;;;;;;14.85;8.43;;;;;;;;;;5049538;28;20051;-78
2022/03/08 00:02:31;;;;;;;17.13;9.38;;;;;;;;;;5034667;28;20047;-77
2022/03/08 00:04:57;;;;;;;14.63;9.23;;;;;;;;;;5047092;28;20486;-80
2022/03/08 00:07:23;;;;;;;15.68;9.52;;;;;;;;;;5041123;28;20104;-77
2022/03/08 00:09:49;;;;;;;14.82;9.32;;;;;;;;;;5045741;28;20036;-75
2022/03/08 00:12:15;;;;;;;16.75;9.45;;;;;;;;;;5039461;28;20021;-76
2022/03/08 00:14:41;;;;;;;21.00;10.57;;;;;;;;;;5038256;28;20022;-76
2022/03/08 00:17:07;;;;;;;18.58;10.55;;;;;;;;;;5039339;28;20385;-76
2022/03/08 00:19:33;;;;;;;23.85;10.40;;;;;;;;;;5049564;28;20183;-76
2022/03/08 00:21:59;;;;;;;18.98;10.38;;;;;;;;;;5048682;28;20060;-79
2022/03/08 00:24:25;;;;;;;16.17;9.77;;;;;;;;;;5044702;28;20025;-76
2022/03/08 00:26:51;;;;;;;19.45;11.30;;;;;;;;;;5041787;28;20027;-75
2022/03/08 00:29:17;;;;;;;17.95;10.88;;;;;;;;;;5051157;28;20040;-74
2022/03/08 00:31:43;;;;;;;17.67;10.50;;;;;;;;;;5050515;28;20029;-75
2022/03/08 00:34:09;;;;;;;19.45;11.18;;;;;;;;;;5039634;28;20533;-77
2022/03/08 00:36:36;;;;;;;21.27;10.57;;;;;;;;;;5052949;28;20633;-79
2022/03/08 00:39:03;;;;;;;20.95;10.27;;;;;;;;;;5054837;28;20088;-76
2022/03/08 00:41:29;;;;;;;20.50;11.23;;;;;;;;;;5051895;28;20402;-75
2022/03/08 00:43:55;;;;;;;19.73;10.70;;;;;;;;;;5048774;28;20021;-76
2022/03/08 00:46:21;;;;;;;18.80;10.18;;;;;;;;;;5043529;28;20112;-77
2022/03/08 00:48:47;;;;;;;19.20;10.35;;;;;;;;;;5050886;28;20107;-76
2022/03/08 00:51:13;;;;;;;19.67;11.15;;;;;;;;;;5044659;28;20463;-76
2022/03/08 00:53:39;;;;;;;17.30;9.98;;;;;;;;;;5046293;28;20036;-77
2022/03/08 00:56:05;;;;;;;16.00;9.57;;;;;;;;;;5047911;28;20021;-76
2022/03/08 00:58:34;;;;;;;19.80;9.68;;;;;;;;;;5038752;28;20072;-76
2022/03/08 01:01:00;;;;;;;17.30;9.90;;;;;;;;;;5036797;28;20039;-75
2022/03/08 01:03:26;;;;;;;19.65;10.68;;;;;;;;;;5044891;28;20052;-76
2022/03/08 01:05:52;;;;;;;18.17;10.77;;;;;;;;;;5041661;28;20095;-75
2022/03/08 01:08:18;;;;;;;15.48;9.43;;;;;;;;;;5041837;28;20030;-75
2022/03/08 01:10:44;;;;;;;17.67;10.00;;;;;;;;;;5049457;28;20416;-76
2022/03/08 01:13:10;;;;;;;17.33;9.90;;;;;;;;;;5051203;28;20028;-76
2022/03/08 01:15:36;;;;;;;17.70;8.98;;;;;;;;;;5038185;28;20034;-77
2022/03/08 01:18:02;;;;;;;17.35;9.60;;;;;;;;;;5039511;28;20021;-76
2022/03/08 01:20:29;;;;;;;15.60;8.93;;;;;;;;;;5036296;28;20045;-77
2022/03/08 01:22:55;;;;;;;16.10;9.30;;;;;;;;;;5036489;28;20392;-76
2022/03/08 01:25:21;;;;;;;17.80;9.27;;;;;;;;;;5036154;28;20084;-75
2022/03/08 01:27:48;;;;;;;15.00;9.02;;;;;;;;;;5044950;28;20021;-76
2022/03/08 01:30:15;;;;;;;16.42;9.20;;;;;;;;;;5043292;28;20045;-76
2022/03/08 01:32:42;;;;;;;16.83;9.02;;;;;;;;;;5039250;28;20477;-76
2022/03/08 01:35:08;;;;;;;16.88;9.40;;;;;;;;;;5040044;28;20094;-77
2022/03/08 01:37:35;;;;;;;16.48;9.30;;;;;;;;;;5043730;28;20029;-76
2022/03/08 01:40:01;;;;;;;14.90;8.77;;;;;;;;;;5042609;28;20123;-74
2022/03/08 01:42:27;;;;;;;16.08;8.95;;;;;;;;;;5042407;28;20409;-75
2022/03/08 01:44:53;;;;;;;14.82;9.38;;;;;;;;;;5042629;28;20538;-75
2022/03/08 01:47:21;;;;;;;12.38;8.05;;;;;;;;;;5045793;28;20394;-76
2022/03/08 01:49:48;;;;;;;15.32;9.45;;;;;;;;;;5054563;28;20033;-76
2022/03/08 01:52:15;;;;;;;13.02;8.93;;;;;;;;;;5045026;28;20120;-77
2022/03/08 01:54:42;;;;;;;13.43;8.32;;;;;;;;;;5050033;28;20065;-77
2022/03/08 01:57:08;;;;;;;14.38;8.93;;;;;;;;;;5051226;28;20086;-76
2022/03/08 01:59:34;;;;;;;14.77;9.50;;;;;;;;;;5035143;28;20074;-76
2022/03/08 02:02:00;;;;;;;16.33;8.90;;;;;;;;;;5050055;28;20105;-77
2022/03/08 02:04:26;;;;;;;13.00;8.10;;;;;;;;;;5038670;28;20032;-76
2022/03/08 02:06:52;;;;;;;14.50;8.93;;;;;;;;;;5042395;28;20021;-76
2022/03/08 02:09:19;;;;;;;15.13;8.95;;;;;;;;;;5035624;28;20029;-76
2022/03/08 02:11:45;;;;;;;16.63;9.30;;;;;;;;;;5032556;28;20036;-77
2022/03/08 02:14:11;;;;;;;14.82;8.75;;;;;;;;;;5039566;28;20044;-76
2022/03/08 02:16:37;;;;;;;14.95;9.00;;;;;;;;;;5044336;28;20078;-76
2022/03/08 02:19:03;;;;;;;16.83;9.30;;;;;;;;;;5046397;28;20080;-77
2022/03/08 02:21:33;;;;;;;15.05;9.07;;;;;;;;;;5042628;28;20029;-76
2022/03/08 02:23:59;;;;;;;13.95;8.68;;;;;;;;;;5044714;28;20071;-77
2022/03/08 02:26:26;;;;;;;13.07;8.43;;;;;;;;;;5048125;28;20061;-76
2022/03/08 02:28:53;;;;;;;14.05;7.78;;;;;;;;;;5041597;28;20040;-77
2022/03/08 02:31:19;;;;;;;13.25;7.93;;;;;;;;;;5048777;28;20040;-77
2022/03/08 02:33:45;;;;;;;14.02;8.52;;;;;;;;;;5045695;28;20021;-76
2022/03/08 02:36:11;;;;;;;12.77;7.80;;;;;;;;;;5041774;28;20540;-76
2022/03/08 02:38:37;;;;;;;12.38;8.13;;;;;;;;;;5039088;28;20046;-76
2022/03/08 02:41:03;;;;;;;13.57;8.45;;;;;;;;;;5034084;28;20029;-76
2022/03/08 02:43:30;;;;;;;15.13;9.32;;;;;;;;;;5040848;28;20026;-76
2022/03/08 02:45:56;;;;;;;15.13;8.60;;;;;;;;;;5046281;28;20072;-77
2022/03/08 02:48:25;;;;;;;15.50;8.95;;;;;;;;;;5040809;28;20477;-76
2022/03/08 02:50:51;;;;;;;15.18;8.63;;;;;;;;;;5040605;28;20029;-75
2022/03/08 02:53:17;;;;;;;14.05;8.38;;;;;;;;;;5046350;28;20033;-77
2022/03/08 02:55:43;;;;;;;15.82;8.07;;;;;;;;;;5041319;28;20296;-75
2022/03/08 02:58:10;;;;;;;18.15;9.00;;;;;;;;;;5036369;28;20021;-75
2022/03/08 03:00:36;;;;;;;14.30;9.02;;;;;;;;;;5050984;28;20116;-76
2022/03/08 03:03:06;;;;;;;13.48;7.88;;;;;;;;;;5041106;28;20044;-75
2022/03/08 03:05:33;;;;;;;16.08;8.82;;;;;;;;;;5046484;28;20029;-75
2022/03/08 03:07:59;;;;;;;14.40;8.20;;;;;;;;;;5044422;28;20079;-75
2022/03/08 03:10:26;;;;;;;16.17;8.52;;;;;;;;;;5048141;28;20139;-75
2022/03/08 03:12:53;;;;;;;13.55;8.68;;;;;;;;;;5045880;28;20026;-74
2022/03/08 03:15:20;;;;;;;13.52;9.13;;;;;;;;;;5042655;28;20082;-76
2022/03/08 03:17:46;;;;;;;15.82;8.95;;;;;;;;;;5052948;28;20017;-75
2022/03/08 03:20:13;;;;;;;15.45;8.93;;;;;;;;;;5034024;28;20073;-75
2022/03/08 03:22:39;;;;;;;19.90;8.70;;;;;;;;;;5044291;28;20029;-76
2022/03/08 03:25:06;;;;;;;12.98;7.80;;;;;;;;;;5050315;28;20228;-76
2022/03/08 03:27:32;;;;;;;13.45;8.32;;;;;;;;;;5049628;28;20070;-75
2022/03/08 03:29:58;;;;;;;13.52;8.43;;;;;;;;;;5050521;28;20107;-76
2022/03/08 03:32:24;;;;;;;14.25;8.90;;;;;;;;;;5049527;28;20025;-74
2022/03/08 03:34:50;;;;;;;15.52;8.88;;;;;;;;;;5051458;28;20748;-75
2022/03/08 03:37:16;;;;;;;13.90;8.23;;;;;;;;;;5052034;28;20019;-75
2022/03/08 03:39:43;;;;;;;12.55;7.75;;;;;;;;;;5052510;28;20045;-76
2022/03/08 03:42:09;;;;;;;18.90;8.73;;;;;;;;;;5052277;28;20033;-76
2022/03/08 03:44:35;;;;;;;16.98;9.05;;;;;;;;;;5052974;28;20082;-75
2022/03/08 03:47:01;;;;;;;12.75;8.13;;;;;;;;;;5053110;28;20033;-75
2022/03/08 03:49:27;;;;;;;15.80;8.30;;;;;;;;;;5051344;28;20039;-76
2022/03/08 03:51:53;;;;;;;14.90;8.15;;;;;;;;;;5052340;28;20029;-75
2022/03/08 03:54:20;;;;;;;11.15;7.90;;;;;;;;;;5052238;28;20080;-76
2022/03/08 03:56:46;;;;;;;16.15;8.95;;;;;;;;;;5052433;28;20441;-77
2022/03/08 03:59:12;;;;;;;13.93;8.75;;;;;;;;;;5052423;28;20505;-75
2022/03/08 04:01:38;;;;;;;15.45;8.05;;;;;;;;;;5052657;28;20121;-77
2022/03/08 04:04:04;;;;;;;13.63;7.90;;;;;;;;;;5052872;28;20029;-74
2022/03/08 04:06:32;;;;;;;16.38;8.75;;;;;;;;;;5052648;28;20397;-74
2022/03/08 04:08:58;;;;;;;15.50;8.75;;;;;;;;;;5052706;28;20092;-75
2022/03/08 04:11:24;;;;;;;14.63;8.25;;;;;;;;;;5052393;28;20417;-74
2022/03/08 04:13:50;;;;;;;13.68;7.88;;;;;;;;;;5052300;28;20335;-75
2022/03/08 04:16:16;;;;;;;13.02;8.50;;;;;;;;;;5052650;28;20033;-75
2022/03/08 04:18:42;;;;;;;16.27;9.00;;;;;;;;;;5052378;28;20039;-76
2022/03/08 04:21:08;;;;;;;15.07;8.85;;;;;;;;;;5052776;28;20036;-75
2022/03/08 04:23:34;;;;;;;13.30;7.85;;;;;;;;;;5051973;28;20021;-76
2022/03/08 04:26:01;;;;;;;14.38;8.02;;;;;;;;;;5052438;28;20029;-75
2022/03/08 04:28:27;;;;;;;14.23;7.68;;;;;;;;;;5050692;28;20039;-77
2022/03/08 04:30:53;;;;;;;13.18;7.72;;;;;;;;;;5052516;28;20440;-77
2022/03/08 04:33:19;;;;;;;14.20;7.97;;;;;;;;;;5052674;28;20056;-76
2022/03/08 04:35:45;;;;;;;12.95;7.82;;;;;;;;;;5052349;28;20437;-77
2022/03/08 04:38:11;;;;;;;14.00;7.60;;;;;;;;;;5051815;28;20031;-77
2022/03/08 04:40:37;;;;;;;13.52;8.23;;;;;;;;;;5052296;28;20091;-76
2022/03/08 04:43:03;;;;;;;13.18;8.40;;;;;;;;;;5051060;28;20022;-76
2022/03/08 04:45:29;;;;;;;14.02;8.10;;;;;;;;;;5052369;28;20496;-77
2022/03/08 04:47:55;;;;;;;16.35;7.75;;;;;;;;;;5052087;28;20028;-78
2022/03/08 04:50:22;;;;;;;13.38;7.78;;;;;;;;;;5052033;28;20405;-77
2022/03/08 04:52:48;;;;;;;13.35;8.05;;;;;;;;;;5050939;28;20029;-76
2022/03/08 04:55:15;;;;;;;16.58;8.05;;;;;;;;;;5051936;28;20029;-77
2022/03/08 04:57:41;;;;;;;13.23;7.70;;;;;;;;;;5051901;28;20029;-75
2022/03/08 05:00:11;;;;;;;13.73;7.90;;;;;;;;;;5052102;28;20108;-74
2022/03/08 05:02:38;;;;;;;13.35;7.80;;;;;;;;;;5052272;28;20029;-75
2022/03/08 05:05:04;;;;;;;13.82;7.93;;;;;;;;;;5036724;28;20497;-76
2022/03/08 05:07:30;;;;;;;15.23;8.20;;;;;;;;;;5036163;28;20157;-74
2022/03/08 05:09:57;;;;;;;14.30;8.38;;;;;;;;;;5047981;28;20539;-74
2022/03/08 05:12:23;;;;;;;17.73;9.35;;;;;;;;;;5055628;28;20465;-75
2022/03/08 05:14:49;;;;;;;15.30;8.77;;;;;;;;;;5056091;28;20029;-75
2022/03/08 05:17:15;;;;;;;13.95;8.10;;;;;;;;;;5055832;28;20059;-74
2022/03/08 05:19:41;;;;;;;13.68;8.32;;;;;;;;;;5055469;28;20040;-74
2022/03/08 05:22:07;;;;;;;14.45;8.25;;;;;;;;;;5055332;28;20419;-74
2022/03/08 05:24:33;;;;;;;12.48;8.65;;;;;;;;;;5055494;28;20029;-74
2022/03/08 05:26:59;;;;;;;12.02;7.40;;;;;;;;;;5055748;28;20470;-75
2022/03/08 05:29:25;;;;;;;13.35;7.75;;;;;;;;;;5055810;28;20028;-74
2022/03/08 05:31:51;;;;;;;14.05;8.02;;;;;;;;;;5055964;28;20910;-75
2022/03/08 05:34:17;;;;;;;13.27;7.40;;;;;;;;;;5055702;28;20056;-76
2022/03/08 05:36:43;;;;;;;13.63;8.40;;;;;;;;;;5055996;28;20091;-74
2022/03/08 05:39:09;;;;;;;11.63;7.25;;;;;;;;;;5055547;28;20120;-75
2022/03/08 05:41:35;;;;;;;12.27;7.50;;;;;;;;;;5053819;28;20462;-77
2022/03/08 05:44:01;;;;;;;12.90;7.50;;;;;;;;;;5055730;28;20044;-77
2022/03/08 05:46:27;;;;;;;14.32;7.40;;;;;;;;;;5055718;28;20052;-78
2022/03/08 05:48:53;;;;;;;15.98;8.18;;;;;;;;;;5055391;28;20055;-76
2022/03/08 05:51:19;;;;;;;15.05;8.68;;;;;;;;;;5055872;28;20021;-76
2022/03/08 05:53:45;;;;;;;12.65;7.18;;;;;;;;;;5053862;28;20025;-78
2022/03/08 05:56:11;;;;;;;11.35;7.75;;;;;;;;;;5055391;28;20036;-75
2022/03/08 05:58:37;;;;;;;14.07;7.95;;;;;;;;;;5052998;28;20032;-75
2022/03/08 06:01:04;;;;;;;11.88;7.35;;;;;;;;;;5053717;28;20072;-74
2022/03/08 06:03:30;;;;;;;14.77;7.80;;;;;;;;;;5054869;28;20040;-74
2022/03/08 06:05:56;;;;;;;12.30;7.93;;;;;;;;;;5055216;28;20478;-75
2022/03/08 06:08:22;;;;;;;12.98;7.57;;;;;;;;;;5054381;28;20514;-74
2022/03/08 06:10:48;;;;;;;16.73;7.90;;;;;;;;;;5052502;28;20112;-75
2022/03/08 06:13:14;;;;;;;13.50;6.53;;;;;;;;;;5050467;28;20075;-75
2022/03/08 06:15:40;;;;;;;12.27;7.28;;;;;;;;;;5054102;28;20024;-74
2022/03/08 06:18:06;;;;;;;13.32;8.48;;;;;;;;;;5053524;28;20036;-74
2022/03/08 06:20:32;;;;;;;14.70;7.57;;;;;;;;;;5054520;28;20111;-74
2022/03/08 06:22:58;;;;;;;14.13;7.45;;;;;;;;;;5054148;28;20504;-75
2022/03/08 06:25:25;;;;;;;13.40;7.80;;;;;;;;;;5054894;28;20025;-75
2022/03/08 06:27:51;;;;;;;14.48;7.28;;;;;;;;;;5054366;28;20029;-76
2022/03/08 06:30:17;;;;;;;12.40;7.45;;;;;;;;;;5054613;28;20056;-74
2022/03/08 06:32:43;;;;;;;13.10;7.80;;;;;;;;;;5054295;28;20386;-73
2022/03/08 06:35:09;;;;;;;12.32;7.20;;;;;;;;;;5054337;28;20043;-74
2022/03/08 06:37:35;;;;;;;14.18;7.57;;;;;;;;;;5053992;28;20382;-77
2022/03/08 06:40:01;;;;;;;15.40;7.05;;;;;;;;;;5054174;28;20052;-76
2022/03/08 06:42:27;;;;;;;17.70;8.30;;;;;;;;;;5054334;28;20024;-76
2022/03/08 06:44:53;;;;;;;15.88;8.05;;;;;;;;;;5060051;28;20028;-75
2022/03/08 06:47:19;;;;;;;13.73;7.55;;;;;;;;;;5054927;28;20075;-76
2022/03/08 06:49:45;;;;;;;13.40;7.85;;;;;;;;;;5053151;28;20036;-77
2022/03/08 06:52:12;;;;;;;14.25;8.07;;;;;;;;;;5053888;28;20021;-76
2022/03/08 06:54:40;;;;;;;13.82;7.63;;;;;;;;;;5055415;28;20025;-75
2022/03/08 06:57:06;;;;;;;16.05;8.35;;;;;;;;;;5054393;28;20025;-76
2022/03/08 06:59:32;;;;;;;14.48;8.23;;;;;;;;;;5053943;28;20044;-76
2022/03/08 07:01:59;;;;;;;13.23;7.43;;;;;;;;;;5053688;28;20017;-76
2022/03/08 07:04:25;;;;;;;14.88;7.03;;;;;;;;;;5033575;28;20096;-77
2022/03/08 07:06:52;;;;;;;17.00;7.78;;;;;;;;;;5033839;28;20021;-76
2022/03/08 07:09:18;;;;;;;15.70;7.97;;;;;;;;;;5034157;28;20037;-74
2022/03/08 07:11:44;;;;;;;15.70;8.80;;;;;;;;;;5051176;28;20087;-76
2022/03/08 07:14:15;;;;;;;13.13;8.00;;;;;;;;;;5052874;28;20059;-74
2022/03/08 07:16:42;;;;;;;17.30;8.68;;;;;;;;;;5053094;28;20074;-75
2022/03/08 07:19:08;;;;;;;15.48;7.07;;;;;;;;;;5052978;28;20080;-76
2022/03/08 07:21:34;;;;;;;16.20;7.70;;;;;;;;;;5053604;28;20389;-75
2022/03/08 07:24:00;;;;;;;20.98;8.05;;;;;;;;;;5053407;28;20021;-75
2022/03/08 07:26:26;;;;;;;11.35;6.88;;;;;;;;;;5051505;28;20036;-76
2022/03/08 07:28:52;;;;;;;10.88;6.78;;;;;;;;;;5048689;28;20067;-75
2022/03/08 07:31:18;;;;;;;11.02;6.68;;;;;;;;;;5053293;28;20066;-77
2022/03/08 07:33:44;;;;;;;12.63;7.07;;;;;;;;;;5053021;28;20032;-76
2022/03/08 07:36:10;;;;;;;10.20;6.45;;;;;;;;;;5051850;28;20029;-77
2022/03/08 07:38:36;;;;;;;12.40;7.80;;;;;;;;;;5050960;28;20036;-75
2022/03/08 07:41:03;;;;;;;12.82;7.00;;;;;;;;;;5052621;28;20036;-74
2022/03/08 07:43:29;;;;;;;12.05;7.40;;;;;;;;;;5051733;28;20025;-75
2022/03/08 07:45:55;;;;;;;12.55;7.03;;;;;;;;;;5052627;28;20025;-74
2022/03/08 07:48:21;;;;;;;19.33;7.10;;;;;;;;;;5052273;28;20474;-78
2022/03/08 07:50:47;;;;;;;12.02;6.95;;;;;;;;;;5052205;28;20044;-76
2022/03/08 07:53:13;;;;;;;11.68;6.13;;;;;;;;;;5052974;28;20478;-76
2022/03/08 07:55:39;;;;;;;13.68;7.88;;;;;;;;;;5052147;28;20100;-75
2022/03/08 07:58:06;;;;;;;14.98;6.50;;;;;;;;;;5049584;28;20485;-77
2022/03/08 08:00:33;;;;;;;16.08;7.50;;;;;;;;;;5045070;28;20028;-77
2022/03/08 08:03:03;;;;;;;13.32;7.13;;;;;;;;;;5052567;28;20021;-77
2022/03/08 08:05:29;;;;;;;11.25;6.75;;;;;;;;;;5052274;28;20501;-77
2022/03/08 08:07:55;;;;;;;9.80;6.85;;;;;;;;;;5052721;28;20023;-76
2022/03/08 08:10:21;;;;;;;9.45;6.50;;;;;;;;;;5051763;28;20020;-75
2022/03/08 08:12:47;;;;;;;13.98;7.07;;;;;;;;;;5052274;28;20025;-79
2022/03/08 08:15:13;;;;;;;16.27;7.38;;;;;;;;;;5051915;28;20025;-80
2022/03/08 08:17:39;;;;;;;13.23;6.35;;;;;;;;;;5052188;28;20155;-82
2022/03/08 08:20:06;;;;;;;11.95;6.30;;;;;;;;;;5052020;28;20036;-80
2022/03/08 08:22:32;;;;;;;13.57;7.00;;;;;;;;;;5052533;28;20025;-83
2022/03/08 08:24:58;;;;;;;11.98;6.47;;;;;;;;;;5049927;28;20029;-73
2022/03/08 08:27:24;;;;;;;15.80;7.30;;;;;;;;;;5033712;28;20076;-72
2022/03/08 08:29:51;;;;;;;17.15;7.50;;;;;;;;;;5049244;28;20028;-73
2022/03/08 08:32:17;;;;;;;13.27;6.90;;;;;;;;;;5034993;28;20492;-72
2022/03/08 08:34:43;;;;;;;11.98;7.30;;;;;;;;;;5039515;28;20024;-73
2022/03/08 08:37:09;;;;;;;12.07;6.60;;;;;;;;;;5047699;28;20386;-74
2022/03/08 08:39:36;;;;;;;11.10;6.45;;;;;;;;;;5051305;28;20040;-73
2022/03/08 08:42:02;;;;;;;12.55;7.13;;;;;;;;;;5039669;28;20032;-74
2022/03/08 08:44:28;;;;;;;11.07;7.13;;;;;;;;;;5055093;28;20417;-72
2022/03/08 08:46:54;;;;;;;13.38;6.50;;;;;;;;;;5047207;28;20517;-72
2022/03/08 08:49:20;;;;;;;12.52;7.30;;;;;;;;;;5050795;28;20028;-72
2022/03/08 08:51:46;;;;;;;12.50;7.10;;;;;;;;;;5055348;28;20112;-72
2022/03/08 08:54:13;;;;;;;12.63;6.45;;;;;;;;;;5038485;28;20021;-72
2022/03/08 08:56:39;;;;;;;10.68;5.78;;;;;;;;;;5048136;28;20017;-73
2022/03/08 08:59:06;;;;;;;11.93;6.25;;;;;;;;;;5049329;28;20044;-73
2022/03/08 09:01:32;;;;;;;11.55;6.75;;;;;;;;;;5040281;28;20029;-73
2022/03/08 09:03:58;;;;;;;8.45;5.75;;;;;;;;;;5051653;28;20032;-73
2022/03/08 09:06:25;;;;;;;13.80;6.55;;;;;;;;;;5045387;28;20040;-73
2022/03/08 09:08:51;;;;;;;16.10;7.07;;;;;;;;;;5051252;28;20082;-76
2022/03/08 09:11:17;;;;;;;8.38;5.65;;;;;;;;;;5042404;28;20653;-77
2022/03/08 09:13:43;;;;;;;10.32;7.05;;;;;;;;;;5044276;28;20497;-75
2022/03/08 09:16:10;;;;;;;15.43;6.35;;;;;;;;;;5044586;28;20048;-76
2022/03/08 09:18:36;;;;;;;10.05;5.88;;;;;;;;;;5042385;28;20025;-76
2022/03/08 09:21:02;;;;;;;11.32;6.82;;;;;;;;;;5050218;28;20036;-74
2022/03/08 09:23:28;;;;;;;9.05;6.07;;;;;;;;;;5042792;28;20143;-76
2022/03/08 09:25:54;;;;;;;13.63;6.10;;;;;;;;;;5049523;28;20024;-74
2022/03/08 09:28:20;;;;;;;11.25;5.75;;;;;;;;;;5051738;28;20024;-75
2022/03/08 09:30:48;;;;;;;10.20;6.25;;;;;;;;;;5048967;28;20024;-76
2022/03/08 09:33:14;;;;;;;9.02;5.85;;;;;;;;;;5051776;28;20339;-76
2022/03/08 09:35:40;;;;;;;12.55;6.28;;;;;;;;;;5053417;28;20025;-77
2022/03/08 09:38:06;;;;;;;12.13;6.65;;;;;;;;;;5054360;28;20025;-80
2022/03/08 09:40:32;;;;;;;10.88;6.65;;;;;;;;;;5050832;28;20037;-75
2022/03/08 09:42:59;;;;;;;11.07;6.45;;;;;;;;;;5049441;28;20024;-75
2022/03/08 09:45:25;;;;;;;14.13;6.43;;;;;;;;;;5047743;28;20033;-75
2022/03/08 09:47:51;;;;;;;8.95;6.13;;;;;;;;;;5040173;28;20711;-76
2022/03/08 09:50:18;;;;;;;11.77;6.20;;;;;;;;;;5044586;28;20080;-77
2022/03/08 09:52:45;;;;;;;11.38;5.53;;;;;;;;;;5048917;28;20025;-74
2022/03/08 09:55:12;;;;;;;13.52;6.35;;;;;;;;;;5047462;28;20024;-77
2022/03/08 09:57:39;;;;;;;12.73;5.78;;;;;;;;;;5046019;28;20083;-76
2022/03/08 10:00:06;;;;;;;10.25;6.15;;;;;;;;;;5048700;28;20342;-75
2022/03/08 10:02:50;;;;;;;10.18;4.93;;;;;;;;;;5046432;28;20494;-76
2022/03/08 10:05:17;;;;;;;11.07;6.25;;;;;;;;;;5042668;28;20037;-73
2022/03/08 10:08:10;;;;;;;9.07;6.18;;;;;;;;;;5046493;28;20033;-76
2022/03/08 10:11:01;;;;;;;9.73;5.50;;;;;;;;;;5041904;28;20025;-75
2022/03/08 10:13:30;;;;;;;11.63;5.85;;;;;;;;;;5038984;28;20033;-78
2022/03/08 10:16:05;;;;;;;11.88;6.10;;;;;;;;;;5037939;28;20489;-77
2022/03/08 10:18:32;;;;;;;9.13;5.78;;;;;;;;;;5046787;28;20041;-78
2022/03/08 10:20:58;;;;;;;10.90;5.40;;;;;;;;;;5039247;28;20120;-77
2022/03/08 10:23:24;;;;;;;8.70;5.65;;;;;;;;;;5037658;28;20043;-76
2022/03/08 10:25:50;;;;;;;11.18;6.28;;;;;;;;;;5045302;28;20021;-76
2022/03/08 10:28:16;;;;;;;8.38;5.65;;;;;;;;;;5051119;28;20482;-76
2022/03/08 10:30:45;;;;;;;8.05;4.57;;;;;;;;;;5042438;28;20079;-76
2022/03/08 10:33:19;;;;;;;11.98;5.82;;;;;;;;;;5049277;28;20043;-75
2022/03/08 10:35:46;;;;;;;10.25;5.50;;;;;;;;;;5039068;28;20055;-76
2022/03/08 10:38:12;;;;;;;8.02;5.20;;;;;;;;;;5049171;28;20025;-76
2022/03/08 10:40:38;;;;;;;9.48;6.03;;;;;;;;;;5045836;28;20045;-75
2022/03/08 10:43:04;;;;;;;9.18;5.80;;;;;;;;;;5038350;28;20021;-75
2022/03/08 10:45:32;;;;;;;11.57;5.75;;;;;;;;;;5043292;28;20384;-75
2022/03/08 10:47:58;;;;;;;8.48;5.50;;;;;;;;;;5046157;28;20025;-76
2022/03/08 10:50:31;;;;;;;12.85;6.78;;;;;;;;;;5044400;28;20029;-75
2022/03/08 10:52:58;;;;;;;8.52;5.43;;;;;;;;;;5043183;28;20023;-77
2022/03/08 10:55:24;;;;;;;10.95;5.57;;;;;;;;;;5045736;28;20037;-77
2022/03/08 10:57:54;;;;;;;7.95;5.40;;;;;;;;;;5044117;28;20575;-76
2022/03/08 11:00:23;;;;;;;8.88;5.10;;;;;;;;;;5048515;28;20488;-76
2022/03/08 11:02:53;;;;;;;8.00;5.38;;;;;;;;;;5049671;28;20354;-75
2022/03/08 11:05:20;;;;;;;10.50;5.63;;;;;;;;;;5044701;28;20045;-76
2022/03/08 11:07:46;;;;;;;6.55;4.97;;;;;;;;;;5036361;28;20469;-76
2022/03/08 11:10:13;;;;;;;13.85;6.18;;;;;;;;;;5041249;28;20041;-76
2022/03/08 11:12:39;;;;;;;8.60;5.53;;;;;;;;;;5045071;28;20025;-76
2022/03/08 11:15:06;;;;;;;9.93;5.50;;;;;;;;;;5048020;28;20017;-76
2022/03/08 11:17:37;;;;;;;10.02;5.28;;;;;;;;;;5046977;28;20116;-77
2022/03/08 11:20:04;;;;;;;12.10;5.72;;;;;;;;;;5041928;28;20036;-77
2022/03/08 11:22:31;;;;;;;10.52;5.03;;;;;;;;;;5041112;28;20017;-77
2022/03/08 11:24:57;;;;;;;10.50;5.25;;;;;;;;;;5036548;28;20075;-80
2022/03/08 11:27:23;;;;;;;12.63;5.00;;;;;;;;;;5033923;28;20028;-76
2022/03/08 11:29:49;;;;;;;8.52;5.47;;;;;;;;;;5051948;28;20104;-77
2022/03/08 11:32:18;;;;;;;9.00;5.13;;;;;;;;;;5053062;28;20025;-74
2022/03/08 11:35:11;;;;;;;8.45;5.40;;;;;;;;;;5037003;28;20039;-75
2022/03/08 11:37:40;;;;;;;11.98;5.53;;;;;;;;;;5035540;28;20041;-75
2022/03/08 11:40:08;;;;;;;8.45;5.28;;;;;;;;;;5043452;28;20049;-76
2022/03/08 11:42:37;;;;;;;7.95;5.30;;;;;;;;;;5043775;28;20028;-78
2022/03/08 11:45:03;;;;;;;8.85;5.20;;;;;;;;;;5036422;28;20486;-76
2022/03/08 11:47:41;;;;;;;8.10;4.53;;;;;;;;;;5050437;28;20029;-78
2022/03/08 11:50:18;;;;;;;9.00;5.30;;;;;;;;;;5040302;28;20429;-77
2022/03/08 11:52:44;;;;;;;8.98;4.90;;;;;;;;;;5042054;28;20115;-77
2022/03/08 11:55:11;;;;;;;11.70;4.97;;;;;;;;;;5045585;28;20355;-77
2022/03/08 11:57:54;;;;;;;7.00;5.10;;;;;;;;;;5040156;28;20059;-76
2022/03/08 12:00:20;;;;;;;7.63;4.90;;;;;;;;;;5042848;28;20083;-76
2022/03/08 12:02:47;;;;;;;5.95;4.70;;;;;;;;;;5043633;28;20453;-77
2022/03/08 12:05:31;;;;;;;9.55;5.30;;;;;;;;;;5047004;28;20116;-77
2022/03/08 12:07:57;;;;;;;7.35;5.13;;;;;;;;;;5040910;28;20048;-78
2022/03/08 12:10:25;;;;;;;9.15;5.88;;;;;;;;;;5042425;28;20044;-76
2022/03/08 12:12:53;;;;;;;10.63;5.75;;;;;;;;;;5042594;28;20442;-76
2022/03/08 12:15:20;;;;;;;8.25;5.75;;;;;;;;;;5042505;28;20068;-77
2022/03/08 12:18:05;;;;;;;9.63;6.22;;;;;;;;;;5043619;28;20025;-76
2022/03/08 12:20:31;;;;;;;10.60;5.80;;;;;;;;;;5043127;28;20048;-76
2022/03/08 12:23:10;;;;;;;10.82;5.85;;;;;;;;;;5038160;28;20386;-77
2022/03/08 12:25:36;;;;;;;8.65;5.65;;;;;;;;;;5041632;28;20029;-77
2022/03/08 12:28:02;;;;;;;9.88;5.25;;;;;;;;;;5046541;28;20208;-78
2022/03/08 12:30:38;;;;;;;10.13;6.05;;;;;;;;;;5046971;28;20104;-77
2022/03/08 12:33:04;;;;;;;10.15;6.13;;;;;;;;;;5052238;28;20078;-78
2022/03/08 12:35:30;;;;;;;11.95;5.82;;;;;;;;;;5050691;28;20044;-79
2022/03/08 12:37:58;;;;;;;9.15;5.72;;;;;;;;;;5050552;28;20021;-80
2022/03/08 12:40:24;;;;;;;7.32;5.13;;;;;;;;;;5051774;28;20068;-78
2022/03/08 12:42:58;;;;;;;10.27;5.07;;;;;;;;;;5032233;28;20053;-77
2022/03/08 12:45:26;;;;;;;8.60;5.10;;;;;;;;;;5037673;28;20501;-77
2022/03/08 12:47:54;;;;;;;9.30;5.25;;;;;;;;;;5050960;28;20104;-77
2022/03/08 12:50:22;;;;;;;11.55;5.07;;;;;;;;;;5047237;28;20033;-77
2022/03/08 12:52:55;;;;;;;12.20;5.82;;;;;;;;;;5039724;28;20283;-77
2022/03/08 12:55:28;;;;;;;10.25;5.60;;;;;;;;;;5041061;28;20411;-76
2022/03/08 12:57:56;;;;;;;7.85;5.57;;;;;;;;;;5047394;28;20025;-76
2022/03/08 13:00:25;;;;;;;11.65;5.95;;;;;;;;;;5051513;28;20041;-76
2022/03/08 13:02:52;;;;;;;8.13;5.45;;;;;;;;;;5039040;28;20060;-76
2022/03/08 13:05:23;;;;;;;9.02;5.50;;;;;;;;;;5048010;28;20074;-76
2022/03/08 13:07:51;;;;;;;7.20;4.95;;;;;;;;;;5046288;28;20036;-76
2022/03/08 13:10:17;;;;;;;9.30;5.47;;;;;;;;;;5043948;28;20033;-76
2022/03/08 13:12:49;;;;;;;7.80;5.50;;;;;;;;;;5058414;28;20057;-75
2022/03/08 13:15:16;;;;;;;7.97;5.78;;;;;;;;;;5048098;28;20059;-77
2022/03/08 13:17:43;;;;;;;7.45;5.68;;;;;;;;;;5050824;28;20029;-76
2022/03/08 13:20:25;;;;;;;10.55;5.78;;;;;;;;;;5050972;28;20037;-77
2022/03/08 13:22:51;;;;;;;6.75;5.10;;;;;;;;;;5046869;28;20401;-77
2022/03/08 13:25:18;;;;;;;10.75;5.65;;;;;;;;;;5037922;28;20495;-78
2022/03/08 13:27:58;;;;;;;7.10;5.22;;;;;;;;;;5043760;28;20063;-77
2022/03/08 13:30:27;;;;;;;11.65;5.93;;;;;;;;;;5045892;28;20382;-77
2022/03/08 13:33:12;;;;;;;8.73;5.18;;;;;;;;;;5037201;28;20033;-77
2022/03/08 13:35:52;;;;;;;9.38;5.93;;;;;;;;;;5033062;28;20028;-78
2022/03/08 13:38:20;;;;;;;8.60;5.63;;;;;;;;;;5047747;28;20088;-77
2022/03/08 13:40:46;;;;;;;7.72;5.28;;;;;;;;;;5036936;28;20051;-78
2022/03/08 13:43:13;;;;;;;9.88;5.55;;;;;;;;;;5042398;28;20037;-78
2022/03/08 13:45:40;;;;;;;11.00;5.97;;;;;;;;;;5053757;28;20500;-78
2022/03/08 13:48:07;;;;;;;12.15;5.85;;;;;;;;;;5046675;28;20495;-79
2022/03/08 13:50:33;;;;;;;8.00;5.65;;;;;;;;;;5036121;28;20047;-78
2022/03/08 13:53:07;;;;;;;8.52;5.90;;;;;;;;;;5042931;28;20083;-78
2022/03/08 13:55:33;;;;;;;8.43;5.28;;;;;;;;;;5032843;28;20057;-75
2022/03/08 13:58:00;;;;;;;7.57;5.18;;;;;;;;;;5045355;28;20133;-77
2022/03/08 14:00:30;;;;;;;8.27;5.32;;;;;;;;;;5053963;28;20390;-78
2022/03/08 14:02:57;;;;;;;13.68;5.70;;;;;;;;;;5036863;28;20025;-77
2022/03/08 14:05:23;;;;;;;14.57;6.13;;;;;;;;;;5046453;28;20037;-77
2022/03/08 14:07:56;;;;;;;7.10;5.13;;;;;;;;;;5045130;28;20021;-78
2022/03/08 14:10:24;;;;;;;9.80;5.57;;;;;;;;;;5044123;28;20032;-77
2022/03/08 14:12:50;;;;;;;13.75;5.68;;;;;;;;;;5038510;28;20025;-77
2022/03/08 14:15:19;;;;;;;7.93;5.07;;;;;;;;;;5041219;28;20116;-77
2022/03/08 14:18:03;;;;;;;8.30;5.28;;;;;;;;;;5043880;28;20029;-77
2022/03/08 14:20:35;;;;;;;9.35;4.97;;;;;;;;;;5036656;28;20064;-77
2022/03/08 14:23:03;;;;;;;8.52;4.93;;;;;;;;;;5038819;28;20029;-77
2022/03/08 14:25:29;;;;;;;15.18;5.35;;;;;;;;;;5043759;28;20027;-77
2022/03/08 14:27:55;;;;;;;7.72;5.57;;;;;;;;;;5038247;28;20025;-77
2022/03/08 14:30:25;;;;;;;8.35;4.72;;;;;;;;;;5033163;28;20037;-76